createdAt,value
2018-11-27T00:01:14.427Z,80.10
2018-11-27T00:03:41.586Z,80.00
2018-11-27T00:06:12.760Z,80.50
2018-11-27T00:08:40.470Z,79.40
2018-11-27T00:13:53.756Z,77.60
2018-11-27T00:16:21.828Z,78.00
2018-11-27T00:18:52.942Z,78.40
2018-11-27T00:21:25.256Z,79.70
2018-11-27T00:23:56.663Z,79.00
2018-11-27T00:29:15.335Z,77.60
2018-11-27T00:31:43.433Z,76.90
2018-11-27T00:34:11.152Z,77.10
2018-11-27T00:36:38.184Z,76.70
2018-11-27T00:39:09.167Z,75.80
2018-11-27T00:41:36.660Z,77.30
2018-11-27T00:44:04.168Z,77.20
2018-11-27T00:46:30.958Z,77.40
2018-11-27T00:54:33.708Z,77.40
2018-11-27T00:57:02.646Z,78.30
2018-11-27T00:59:31.118Z,76.60
2018-11-27T01:02:01.841Z,76.90
2018-11-27T01:04:29.613Z,75.70
2018-11-27T01:09:47.180Z,75.20
2018-11-27T01:12:17.176Z,75.60
2018-11-27T01:14:45.079Z,76.60
2018-11-27T01:17:16.225Z,76.90
2018-11-27T01:19:45.249Z,77.20
2018-11-27T01:22:15.886Z,76.00
2018-11-27T01:27:30.169Z,76.50
2018-11-27T01:29:59.151Z,77.50
2018-11-27T01:32:25.604Z,76.60
2018-11-27T01:34:53.995Z,77.10
2018-11-27T01:37:22.432Z,77.00
2018-11-27T01:39:49.871Z,77.30
2018-11-27T01:42:17.325Z,76.60
2018-11-27T01:44:44.584Z,78.00
2018-11-27T01:47:12.168Z,77.20
2018-11-27T01:49:46.041Z,76.50
2018-11-27T01:52:13.494Z,77.70
2018-11-27T01:54:39.895Z,78.30
2018-11-27T01:57:07.341Z,77.50
2018-11-27T01:59:34.560Z,78.30
2018-11-27T02:02:05.508Z,78.60
2018-11-27T02:04:31.947Z,78.60
2018-11-27T02:07:01.279Z,77.80
2018-11-27T02:09:28.727Z,78.30
2018-11-27T02:11:56.167Z,79.30
2018-11-27T02:14:23.745Z,76.60
2018-11-27T02:16:54.402Z,77.60
2018-11-27T02:19:25.201Z,78.70
2018-11-27T02:21:51.736Z,77.40
2018-11-27T02:24:19.206Z,78.40
2018-11-27T02:26:46.696Z,78.00
2018-11-27T02:29:13.673Z,78.10
2018-11-27T02:31:41.435Z,79.60
2018-11-27T02:34:08.889Z,79.30
2018-11-27T02:36:35.947Z,79.00
2018-11-27T02:39:03.380Z,77.60
2018-11-27T02:41:30.826Z,78.80
2018-11-27T02:43:57.762Z,78.40
2018-11-27T02:46:25.234Z,78.40
2018-11-27T02:48:53.874Z,77.50
2018-11-27T02:51:20.341Z,77.30
2018-11-27T02:53:51.243Z,77.20
2018-11-27T02:56:18.692Z,77.60
2018-11-27T02:58:45.454Z,78.90
2018-11-27T03:01:11.878Z,79.30
2018-11-27T03:03:38.318Z,80.00
2018-11-27T03:06:07.515Z,80.20
2018-11-27T03:08:38.218Z,79.40
2018-11-27T03:11:05.667Z,79.20
2018-11-27T03:13:33.172Z,78.60
2018-11-27T03:16:00.628Z,78.10
2018-11-27T03:18:30.931Z,78.00
2018-11-27T03:20:58.853Z,78.00
2018-11-27T03:23:26.733Z,78.60
2018-11-27T03:25:54.195Z,77.60
2018-11-27T03:28:21.035Z,77.00
2018-11-27T03:30:48.491Z,76.90
2018-11-27T03:33:15.951Z,77.00
2018-11-27T03:35:43.074Z,75.90
2018-11-27T03:38:09.508Z,77.90
2018-11-27T03:40:36.960Z,77.70
2018-11-27T03:43:04.097Z,76.80
2018-11-27T03:45:31.561Z,77.10
2018-11-27T03:47:59.011Z,75.90
2018-11-27T03:50:26.427Z,75.80
2018-11-27T03:52:52.875Z,76.20
2018-11-27T03:55:24.933Z,75.90
2018-11-27T03:57:51.331Z,75.50
2018-11-27T04:00:18.802Z,74.40
2018-11-27T04:02:46.225Z,75.70
2018-11-27T04:05:12.793Z,73.90
2018-11-27T04:10:26.655Z,74.30
2018-11-27T04:12:54.165Z,73.90
2018-11-27T04:15:21.633Z,74.60
2018-11-27T04:17:48.256Z,73.90
2018-11-27T04:20:15.741Z,74.70
2018-11-27T04:22:43.174Z,73.90
2018-11-27T04:25:11.872Z,75.50
2018-11-27T04:27:42.795Z,75.50
2018-11-27T04:30:13.683Z,75.10
2018-11-27T04:32:40.375Z,75.90
2018-11-27T04:35:11.088Z,75.60
2018-11-27T04:37:37.755Z,74.30
2018-11-27T04:40:06.563Z,77.00
2018-11-27T04:42:37.176Z,77.10
2018-11-27T04:45:08.046Z,75.20
2018-11-27T04:47:34.966Z,75.60
2018-11-27T04:50:02.431Z,74.50
2018-11-27T04:52:33.101Z,74.00
2018-11-27T04:55:02.451Z,75.60
2018-11-27T04:57:31.641Z,74.60
2018-11-27T05:00:02.439Z,74.00
2018-11-27T05:02:39.529Z,76.50
2018-11-27T05:05:06.984Z,77.50
2018-11-27T05:07:34.738Z,77.50
2018-11-27T05:10:02.657Z,75.90
2018-11-27T05:12:30.067Z,76.10
2018-11-27T05:14:58.685Z,77.20
2018-11-27T05:17:25.595Z,75.50
2018-11-27T05:19:54.499Z,74.90
2018-11-27T05:22:23.420Z,75.60
2018-11-27T05:24:53.125Z,75.60
2018-11-27T05:27:21.042Z,75.40
2018-11-27T05:29:49.940Z,75.20
2018-11-27T05:32:18.451Z,75.40
2018-11-27T05:34:45.146Z,73.50
2018-11-27T05:37:14.785Z,74.60
2018-11-27T05:39:44.133Z,72.90
2018-11-27T05:42:12.057Z,75.10
2018-11-27T05:44:39.512Z,75.30
2018-11-27T05:47:09.335Z,74.30
2018-11-27T05:49:38.501Z,75.20
2018-11-27T05:52:06.641Z,76.30
2018-11-27T05:54:50.111Z,73.00
2018-11-27T05:57:17.567Z,73.10
2018-11-27T05:59:44.470Z,70.70
2018-11-27T06:02:13.308Z,72.40
2018-11-27T06:04:53.287Z,73.70
2018-11-27T06:07:21.001Z,71.80
2018-11-27T06:09:48.495Z,72.60
2018-11-27T06:12:15.935Z,73.00
2018-11-27T06:14:45.208Z,74.20
2018-11-27T06:17:14.919Z,73.40
2018-11-27T06:19:42.365Z,72.40
2018-11-27T06:22:11.104Z,74.80
2018-11-27T06:24:38.358Z,71.10
2018-11-27T06:27:08.985Z,69.90
2018-11-27T06:29:36.468Z,73.40
2018-11-27T06:32:03.011Z,72.40
2018-11-27T06:34:32.768Z,71.80
2018-11-27T06:37:01.666Z,69.50
2018-11-27T06:39:28.480Z,69.00
2018-11-27T06:41:58.439Z,71.40
2018-11-27T06:44:28.071Z,70.60
2018-11-27T06:46:54.958Z,70.40
2018-11-27T06:49:21.392Z,70.70
2018-11-27T06:51:48.857Z,72.20
2018-11-27T06:54:17.667Z,71.40
2018-11-27T06:56:45.116Z,73.10
2018-11-27T06:59:14.346Z,73.10
2018-11-27T07:01:58.727Z,74.50
2018-11-27T07:04:27.791Z,77.60
2018-11-27T07:09:45.016Z,77.90
2018-11-27T07:12:28.847Z,79.60
2018-11-27T07:14:58.440Z,81.20
2018-11-27T07:17:28.636Z,83.30
2018-11-27T07:19:55.340Z,85.90
2018-11-27T07:22:21.997Z,85.60
2018-11-27T07:24:52.676Z,88.60
2018-11-27T07:27:22.392Z,89.00
2018-11-27T07:29:50.556Z,90.30
2018-11-27T07:32:19.435Z,90.60
2018-11-27T07:34:46.093Z,90.40
2018-11-27T07:37:13.571Z,90.10
2018-11-27T07:39:41.035Z,91.20
2018-11-27T07:44:54.043Z,90.20
2018-11-27T07:47:21.538Z,87.80
2018-11-27T07:49:48.191Z,88.60
2018-11-27T07:52:15.638Z,88.60
2018-11-27T07:54:48.056Z,87.40
2018-11-27T07:57:16.142Z,87.40
2018-11-27T07:59:47.114Z,87.00
2018-11-27T08:02:13.973Z,87.00
2018-11-27T08:04:42.712Z,87.60
2018-11-27T08:07:12.261Z,88.40
2018-11-27T08:09:42.855Z,88.20
2018-11-27T08:12:13.216Z,87.70
2018-11-27T08:17:31.233Z,87.60
2018-11-27T08:22:44.522Z,86.60
2018-11-27T08:25:11.983Z,86.60
2018-11-27T08:27:40.886Z,87.70
2018-11-27T08:30:12.410Z,87.60
2018-11-27T08:32:43.120Z,87.90
2018-11-27T08:35:22.765Z,87.30
2018-11-27T08:37:50.282Z,87.90
2018-11-27T08:40:16.721Z,87.00
2018-11-27T08:42:45.876Z,87.30
2018-11-27T08:45:15.258Z,87.20
2018-11-27T08:47:42.718Z,88.50
2018-11-27T08:50:09.166Z,89.30
2018-11-27T08:52:36.889Z,88.60
2018-11-27T08:55:08.847Z,87.90
2018-11-27T08:57:40.559Z,88.40
2018-11-27T09:00:07.860Z,89.40
2018-11-27T09:02:36.278Z,89.40
2018-11-27T09:05:03.734Z,87.20
2018-11-27T09:07:30.448Z,89.40
2018-11-27T09:09:57.587Z,87.90
2018-11-27T09:12:25.051Z,86.50
2018-11-27T09:14:56.851Z,86.80
2018-11-27T09:17:26.254Z,88.20
2018-11-27T09:19:56.842Z,88.10
2018-11-27T09:22:26.020Z,88.40
2018-11-27T09:25:04.623Z,88.60
2018-11-27T09:27:31.331Z,87.00
2018-11-27T09:29:58.825Z,87.60
2018-11-27T09:32:25.555Z,87.90
2018-11-27T09:34:54.411Z,85.00
2018-11-27T09:37:21.459Z,86.30
2018-11-27T09:39:50.023Z,85.20
2018-11-27T09:42:21.045Z,87.10
2018-11-27T09:44:47.896Z,87.10
2018-11-27T09:47:33.168Z,88.70
2018-11-27T09:50:00.944Z,87.70
2018-11-27T09:52:27.680Z,86.40
2018-11-27T09:54:56.558Z,87.10
2018-11-27T09:57:24.018Z,86.80
2018-11-27T09:59:54.179Z,85.40
2018-11-27T10:02:22.271Z,86.70
2018-11-27T10:04:51.505Z,86.70
2018-11-27T10:07:18.398Z,87.70
2018-11-27T10:09:47.473Z,87.80
2018-11-27T10:12:13.901Z,85.50
2018-11-27T10:14:48.127Z,86.50
2018-11-27T10:17:16.881Z,87.40
2018-11-27T10:19:48.014Z,87.00
2018-11-27T10:22:17.488Z,86.80
2018-11-27T10:24:47.374Z,88.40
2018-11-27T10:27:14.832Z,88.10
2018-11-27T10:29:45.113Z,90.30
2018-11-27T10:32:15.800Z,89.50
2018-11-27T10:34:43.240Z,88.10
2018-11-27T10:37:09.943Z,87.10
2018-11-27T10:39:39.124Z,89.20
2018-11-27T10:42:05.791Z,89.30
2018-11-27T10:44:33.933Z,88.60
2018-11-27T10:49:57.366Z,90.20
2018-11-27T10:52:25.915Z,89.70
2018-11-27T10:54:53.302Z,89.20
2018-11-27T10:57:28.061Z,86.10
2018-11-27T10:59:56.677Z,90.00
2018-11-27T11:02:25.559Z,89.80
2018-11-27T11:04:54.200Z,90.50
2018-11-27T11:07:24.079Z,90.50
2018-11-27T11:10:01.954Z,90.40
2018-11-27T11:12:30.220Z,91.20
2018-11-27T11:14:59.535Z,90.40
2018-11-27T11:17:26.720Z,90.00
2018-11-27T11:19:56.773Z,88.40
2018-11-27T11:22:23.215Z,88.40
2018-11-27T11:24:49.667Z,88.40
2018-11-27T11:27:16.194Z,86.50
2018-11-27T11:29:46.766Z,87.10
2018-11-27T11:32:14.235Z,90.10
2018-11-27T11:34:42.730Z,89.00
2018-11-27T11:37:10.428Z,88.60
2018-11-27T11:39:41.287Z,89.60
2018-11-27T11:42:10.470Z,88.90
2018-11-27T11:44:37.926Z,88.60
2018-11-27T11:47:06.480Z,86.50
2018-11-27T11:49:33.632Z,87.90
2018-11-27T11:52:04.599Z,88.40
2018-11-27T11:54:33.298Z,88.90
2018-11-27T11:57:01.878Z,87.40
2018-11-27T11:59:29.984Z,85.60
2018-11-27T12:01:57.109Z,88.10
2018-11-27T12:04:25.127Z,87.00
2018-11-27T12:06:53.725Z,86.70
2018-11-27T12:09:21.179Z,87.10
2018-11-27T12:11:48.702Z,87.60
2018-11-27T12:17:02.967Z,89.80
2018-11-27T12:19:30.484Z,88.80
2018-11-27T12:22:04.202Z,88.20
2018-11-27T12:24:30.879Z,88.40
2018-11-27T12:27:01.572Z,88.60
2018-11-27T12:29:31.265Z,89.50
2018-11-27T12:31:57.970Z,88.10
2018-11-27T12:34:24.481Z,87.70
2018-11-27T12:39:37.703Z,86.10
2018-11-27T12:42:05.374Z,89.60
2018-11-27T12:44:33.889Z,90.20
2018-11-27T12:47:02.962Z,88.40
2018-11-27T12:49:29.635Z,88.50
2018-11-27T12:52:01.299Z,88.40
2018-11-27T12:54:32.569Z,88.70
2018-11-27T12:57:12.491Z,89.70
2018-11-27T12:59:43.034Z,88.70
2018-11-27T13:02:12.153Z,88.40
2018-11-27T13:04:41.371Z,88.80
2018-11-27T13:07:14.734Z,89.60
2018-11-27T13:09:54.860Z,88.50
2018-11-27T13:12:22.829Z,90.30
2018-11-27T13:17:38.450Z,89.30
2018-11-27T13:22:52.670Z,89.00
2018-11-27T13:25:20.415Z,88.60
2018-11-27T13:27:47.069Z,90.20
2018-11-27T13:30:15.733Z,89.20
2018-11-27T13:32:46.773Z,88.80
2018-11-27T13:35:14.862Z,88.20
2018-11-27T13:37:44.735Z,87.50
2018-11-27T13:40:14.134Z,88.80
2018-11-27T13:42:40.784Z,89.90
2018-11-27T13:45:09.446Z,87.90
2018-11-27T13:47:39.551Z,88.60
2018-11-27T13:50:23.393Z,88.40
2018-11-27T13:52:54.256Z,87.70
2018-11-27T13:55:21.497Z,87.50
2018-11-27T13:57:49.424Z,87.50
2018-11-27T14:00:18.128Z,88.70
2018-11-27T14:02:48.798Z,89.10
2018-11-27T14:08:04.573Z,87.70
2018-11-27T14:10:32.254Z,86.60
2018-11-27T14:13:01.196Z,85.80
2018-11-27T14:15:29.954Z,86.30
2018-11-27T14:17:56.404Z,86.70
2018-11-27T14:20:26.786Z,87.90
2018-11-27T14:22:54.796Z,87.60
2018-11-27T14:25:32.104Z,86.70
2018-11-27T14:28:02.606Z,86.30
2018-11-27T14:30:31.822Z,84.60
2018-11-27T14:32:59.264Z,85.90
2018-11-27T14:35:27.349Z,86.00
2018-11-27T14:37:54.284Z,86.60
2018-11-27T14:40:23.214Z,86.60
2018-11-27T14:42:50.650Z,85.60
2018-11-27T14:45:20.140Z,85.70
2018-11-27T14:50:33.770Z,84.50
2018-11-27T14:53:01.225Z,85.90
2018-11-27T14:55:30.095Z,84.70
2018-11-27T14:57:57.392Z,85.10
2018-11-27T15:00:25.131Z,84.80
2018-11-27T15:02:55.664Z,85.10
2018-11-27T15:05:35.731Z,85.10
2018-11-27T15:08:29.320Z,84.40
2018-11-27T15:13:46.388Z,84.50
2018-11-27T15:16:16.231Z,85.80
2018-11-27T15:18:43.910Z,86.30
2018-11-27T15:21:10.750Z,84.50
2018-11-27T15:23:39.375Z,85.10
2018-11-27T15:26:06.834Z,85.10
2018-11-27T15:28:37.487Z,84.80
2018-11-27T15:31:04.040Z,85.20
2018-11-27T15:33:31.471Z,84.70
2018-11-27T15:36:00.136Z,85.40
2018-11-27T15:38:34.643Z,85.60
2018-11-27T15:41:02.091Z,86.20
2018-11-27T15:43:38.746Z,87.10
2018-11-27T15:48:52.807Z,87.00
2018-11-27T15:51:21.694Z,86.10
2018-11-27T15:53:50.610Z,85.80
2018-11-27T15:56:18.063Z,87.90
2018-11-27T15:58:49.303Z,89.30
2018-11-27T16:01:18.126Z,89.80
2018-11-27T16:03:47.409Z,88.20
2018-11-27T16:06:26.868Z,87.20
2018-11-27T16:08:58.257Z,86.60
2018-11-27T16:11:28.970Z,87.20
2018-11-27T16:13:57.086Z,88.50
2018-11-27T16:16:26.278Z,87.30
2018-11-27T16:21:40.734Z,88.50
2018-11-27T16:24:07.942Z,88.20
2018-11-27T16:32:11.165Z,91.20
2018-11-27T16:34:37.646Z,90.60
2018-11-27T16:37:05.102Z,89.60
2018-11-27T16:39:34.236Z,88.50
2018-11-27T16:42:03.079Z,90.30
2018-11-27T16:44:30.525Z,88.90
2018-11-27T16:46:57.973Z,89.50
2018-11-27T16:49:27.793Z,82.90
2018-11-27T16:51:58.847Z,83.80
2018-11-27T16:54:28.772Z,82.90
2018-11-27T16:56:56.241Z,83.10
2018-11-27T16:59:25.316Z,83.60
2018-11-27T17:01:52.764Z,82.80
2018-11-27T17:04:19.679Z,80.50
2018-11-27T17:06:50.587Z,78.60
2018-11-27T17:12:05.867Z,84.70
2018-11-27T17:14:36.487Z,82.30
2018-11-27T17:17:02.935Z,81.80
2018-11-27T17:19:34.186Z,80.80
2018-11-27T17:22:01.623Z,82.10
2018-11-27T17:28:03.834Z,81.30
2018-11-27T17:30:32.903Z,84.90
2018-11-27T17:33:03.657Z,83.30
2018-11-27T17:35:31.127Z,74.10
2018-11-27T17:37:58.815Z,71.20
2018-11-27T17:40:36.111Z,68.90
2018-11-27T17:43:05.689Z,66.30
2018-11-27T17:45:32.106Z,67.70
2018-11-27T17:48:00.740Z,62.70
2018-11-27T17:50:29.590Z,64.30
2018-11-27T17:53:00.144Z,61.50
2018-11-27T17:55:27.605Z,62.50
2018-11-27T17:57:57.024Z,64.70
2018-11-27T18:00:28.886Z,63.30
2018-11-27T18:03:01.294Z,60.90
2018-11-27T18:13:04.899Z,61.30
2018-11-27T18:15:32.376Z,59.70
2018-11-27T18:17:59.055Z,63.20
2018-11-27T18:20:26.536Z,59.50
2018-11-27T18:22:55.296Z,61.70
2018-11-27T18:25:24.494Z,62.60
2018-11-27T18:27:53.554Z,62.30
2018-11-27T18:30:21.344Z,60.30
2018-11-27T18:32:51.659Z,61.10
2018-11-27T18:35:18.895Z,62.60
2018-11-27T18:38:05.767Z,58.20
2018-11-27T18:40:36.761Z,59.40
2018-11-27T18:43:04.207Z,59.40
2018-11-27T18:45:31.667Z,59.70
2018-11-27T18:48:01.370Z,59.80
2018-11-27T18:50:27.787Z,59.10
2018-11-27T18:52:56.748Z,60.00
2018-11-27T18:55:25.725Z,60.10
2018-11-27T18:57:56.357Z,59.90
2018-11-27T19:00:29.883Z,58.70
2018-11-27T19:02:59.264Z,58.50
2018-11-27T19:05:28.532Z,58.00
2018-11-27T19:07:59.230Z,59.50
2018-11-27T19:10:30.955Z,59.10
2018-11-27T19:13:00.794Z,58.60
2018-11-27T19:15:26.010Z,57.90
2018-11-27T19:17:52.535Z,60.40
2018-11-27T19:23:11.119Z,59.90
2018-11-27T19:25:38.590Z,60.10
2018-11-27T19:28:17.917Z,61.00
2018-11-27T19:30:52.210Z,58.80
2018-11-27T19:36:06.194Z,58.50
2018-11-27T19:38:33.419Z,58.80
2018-11-27T19:41:00.081Z,58.80
2018-11-27T19:43:39.913Z,57.40
2018-11-27T19:46:07.652Z,58.60
2018-11-27T19:48:53.459Z,59.00
2018-11-27T19:51:20.863Z,58.60
2018-11-27T19:53:56.911Z,58.10
2018-11-27T19:56:25.320Z,58.70
2018-11-27T19:58:54.574Z,57.90
2018-11-27T20:01:21.032Z,57.30
2018-11-27T20:06:35.647Z,58.30
2018-11-27T20:09:06.474Z,57.70
2018-11-27T20:11:37.869Z,57.60
2018-11-27T20:14:07.347Z,57.20
2018-11-27T20:16:38.496Z,58.60
2018-11-27T20:19:05.964Z,57.50
2018-11-27T20:21:32.439Z,58.30
2018-11-27T20:24:06.393Z,59.60
2018-11-27T20:26:36.274Z,59.00
2018-11-27T20:29:02.820Z,58.50
2018-11-27T20:31:30.503Z,57.90
2018-11-27T20:34:00.195Z,58.90
2018-11-27T20:36:28.974Z,58.20
2018-11-27T20:39:00.730Z,58.00
2018-11-27T20:41:32.203Z,57.70
2018-11-27T20:44:02.225Z,56.80
2018-11-27T20:46:29.453Z,56.80
2018-11-27T20:48:58.740Z,57.40
2018-11-27T20:51:26.299Z,59.00
2018-11-27T20:56:41.944Z,57.50
2018-11-27T20:59:08.242Z,58.70
2018-11-27T21:01:36.823Z,58.40
2018-11-27T21:04:11.658Z,59.80
2018-11-27T21:06:40.322Z,59.80
2018-11-27T21:09:07.323Z,59.40
2018-11-27T21:11:34.507Z,60.10
2018-11-27T21:14:00.925Z,59.40
2018-11-27T21:16:28.362Z,58.80
2018-11-27T21:18:57.508Z,58.80
2018-11-27T21:21:25.202Z,59.90
2018-11-27T21:23:52.663Z,60.50
2018-11-27T21:26:20.121Z,58.70
2018-11-27T21:28:46.539Z,59.50
2018-11-27T21:31:16.134Z,59.30
2018-11-27T21:33:44.740Z,60.20
2018-11-27T21:36:11.185Z,58.00
2018-11-27T21:38:42.341Z,58.40
2018-11-27T21:41:17.038Z,57.50
2018-11-27T21:43:47.865Z,59.30
2018-11-27T21:46:18.736Z,58.30
2018-11-27T21:48:46.827Z,58.10
2018-11-27T21:51:15.672Z,57.90
2018-11-27T21:53:49.397Z,57.10
2018-11-27T21:56:16.150Z,56.20
2018-11-27T21:58:42.853Z,56.60
2018-11-27T22:03:54.100Z,55.70
2018-11-27T22:06:21.550Z,55.80
2018-11-27T22:08:49.033Z,57.00
2018-11-27T22:11:18.889Z,56.50
2018-11-27T22:13:48.449Z,56.30
2018-11-27T22:16:15.890Z,56.70
2018-11-27T22:18:44.529Z,55.20
2018-11-27T22:21:12.020Z,55.10
2018-11-27T22:23:38.445Z,55.40
2018-11-27T22:26:08.174Z,55.60
2018-11-27T22:28:37.052Z,54.50
2018-11-27T22:31:07.915Z,54.80
2018-11-27T22:33:36.824Z,54.20
2018-11-27T22:36:04.269Z,53.50
2018-11-27T22:38:31.717Z,53.40
2018-11-27T22:40:58.748Z,53.70
2018-11-27T22:43:29.372Z,54.60
2018-11-27T22:45:57.934Z,54.40
2018-11-27T22:48:27.911Z,54.80
2018-11-27T22:50:55.347Z,54.50
2018-11-27T22:53:22.800Z,55.20
2018-11-27T22:55:50.453Z,54.10
2018-11-27T22:58:16.893Z,53.70
2018-11-27T23:03:33.025Z,55.30
2018-11-27T23:06:00.463Z,55.00
2018-11-27T23:08:40.061Z,54.40
2018-11-27T23:11:08.432Z,55.50
2018-11-27T23:13:34.849Z,55.00
2018-11-27T23:16:02.912Z,54.90
2018-11-27T23:18:30.900Z,55.50
2018-11-27T23:21:01.412Z,54.80
2018-11-27T23:23:27.871Z,56.00
2018-11-27T23:26:05.148Z,55.30
2018-11-27T23:28:31.589Z,55.90
2018-11-27T23:30:59.048Z,56.10
2018-11-27T23:33:25.751Z,55.70
2018-11-27T23:38:41.146Z,55.40
2018-11-27T23:43:57.294Z,55.50
2018-11-27T23:46:25.813Z,55.80
2018-11-27T23:48:52.481Z,54.40
2018-11-27T23:51:23.188Z,54.60
2018-11-27T23:53:50.701Z,55.40
2018-11-27T23:56:19.373Z,55.60
2018-11-27T23:58:46.712Z,56.30
